Time;durP1;ratioP1;P1;durP2;ratioP2;P2;SDS_P1;SDS_P2;PMS_P1;PMS_P2;Temp;Humidity;BMP_temperature;BMP_pressure;BME280_temperature;BME280_humidity;BME280_pressure;Samples;Min_cycle;Max_cycle;Signal;HPM_P1;HPM_P2
2022/05/17 00:00:17;;;;;;;;;7.00;6.00;;;;;23.20;100.00;101593.34;4961078;28;45669;-80
2022/05/17 00:02:43;;;;;;;;;7.67;6.00;;;;;23.18;100.00;101595.22;4979104;28;46724;-82
2022/05/17 00:05:08;;;;;;;;;4.00;4.00;;;;;23.15;100.00;101598.00;4977417;28;45445;-76
2022/05/17 00:07:34;;;;;;;;;8.33;6.33;;;;;23.15;100.00;101598.00;4977638;28;45462;-81
2022/05/17 00:09:59;;;;;;;;;5.00;5.00;;;;;23.14;100.00;101598.94;4977680;28;45296;-80
2022/05/17 00:12:25;;;;;;;;;7.00;5.67;;;;;23.14;100.00;101596.25;4977113;28;64296;-77
2022/05/17 00:14:50;;;;;;;;;6.00;6.00;;;;;23.12;100.00;101590.03;4977166;28;55601;-79
2022/05/17 00:17:15;;;;;;;;;6.00;6.00;;;;;23.10;100.00;101589.16;4977047;28;57416;-82
2022/05/17 00:19:41;;;;;;;;;7.00;5.00;;;;;23.07;100.00;101589.28;4977437;28;45523;-80
2022/05/17 00:22:08;;;;;;;;;7.67;5.67;;;;;23.05;100.00;101588.41;4976981;28;47282;-79
2022/05/17 00:24:33;;;;;;;;;6.00;6.00;;;;;23.03;100.00;101588.47;4960078;28;45378;-80
2022/05/17 00:26:59;;;;;;;;;8.00;6.00;;;;;23.02;100.00;101592.09;4959602;28;50372;-78
2022/05/17 00:29:24;;;;;;;;;5.00;5.00;;;;;22.99;100.00;101584.97;4977453;28;45429;-76
2022/05/17 00:31:50;;;;;;;;;7.33;6.00;;;;;22.96;100.00;101587.75;4977251;28;46830;-78
2022/05/17 00:34:16;;;;;;;;;5.00;5.00;;;;;22.95;100.00;101577.00;4977218;28;59088;-77
2022/05/17 00:36:41;;;;;;;;;7.00;5.67;;;;;22.91;100.00;101568.16;4980938;28;45679;-78
2022/05/17 00:39:07;;;;;;;;;9.00;6.33;;;;;22.90;100.00;101573.56;4980262;28;45408;-77
2022/05/17 00:41:32;;;;;;;;;8.33;6.00;;;;;22.88;100.00;101575.44;4980790;28;46154;-78
2022/05/17 00:46:51;;;;;;;;;5.33;4.00;;;;;22.86;100.00;101575.44;4980837;28;45346;-79
2022/05/17 00:49:32;;;;;;;;;5.33;5.00;;;;;22.84;100.00;101574.59;4980954;28;45215;-81
2022/05/17 00:52:01;;;;;;;;;6.67;5.00;;;;;22.86;100.00;101571.88;4962555;28;46690;-81
2022/05/17 00:54:27;;;;;;;;;5.00;5.00;;;;;22.85;100.00;101573.69;4980508;28;45464;-77
2022/05/17 00:56:59;;;;;;;;;6.67;5.00;;;;;22.87;100.00;101573.63;4963052;28;45358;-78
2022/05/17 00:59:25;;;;;;;;;9.00;5.33;;;;;22.88;100.00;101561.97;4963167;28;45582;-80
2022/05/17 01:01:51;;;;;;;;;5.67;5.00;;;;;22.89;100.00;101566.41;4982450;28;46645;-80
2022/05/17 01:04:19;;;;;;;;;4.67;4.67;;;;;22.88;100.00;101568.22;4979336;28;64914;-81
2022/05/17 01:06:52;;;;;;;;;7.00;5.33;;;;;22.89;100.00;101571.81;4963022;28;45566;-79
2022/05/17 01:09:18;;;;;;;;;5.67;5.00;;;;;22.87;100.00;101563.75;4962531;28;45333;-79
2022/05/17 01:11:43;;;;;;;;;5.00;3.67;;;;;22.86;100.00;101564.69;4979896;28;45720;-77
2022/05/17 01:16:54;;;;;;;;;5.00;5.00;;;;;22.89;100.00;101555.66;4965744;28;45476;-80
2022/05/17 01:19:19;;;;;;;;;6.33;4.00;;;;;22.92;100.00;101559.16;4979935;28;53425;-78
2022/05/17 01:21:45;;;;;;;;;5.00;5.00;;;;;22.94;100.00;101562.66;4979290;28;55753;-81
2022/05/17 01:24:10;;;;;;;;;8.33;5.33;;;;;22.96;100.00;101559.94;4979729;28;45343;-77
2022/05/17 01:26:42;;;;;;;;;4.00;4.00;;;;;22.97;100.00;101561.72;4979883;28;45874;-77
2022/05/17 01:29:07;;;;;;;;;5.33;4.00;;;;;22.98;100.00;101553.56;4963151;28;45371;-77
2022/05/17 01:31:35;;;;;;;;;6.67;4.33;;;;;22.99;100.00;101559.84;4979831;28;46293;-80
2022/05/17 01:34:00;;;;;;;;;5.00;5.00;;;;;22.99;100.00;101565.22;4962151;28;45482;-78
2022/05/17 01:36:26;;;;;;;;;8.67;5.00;;;;;22.98;100.00;101558.09;4979862;28;45389;-77
2022/05/17 01:38:51;;;;;;;;;6.33;5.00;;;;;22.99;100.00;101562.53;4979604;28;52123;-77
2022/05/17 01:41:19;;;;;;;;;6.00;5.00;;;;;23.02;100.00;101559.78;4979756;28;47274;-77
2022/05/17 01:43:44;;;;;;;;;4.33;4.33;;;;;23.03;100.00;101553.44;4979742;28;45311;-78
2022/05/17 01:46:10;;;;;;;;;6.33;5.00;;;;;23.05;100.00;101556.97;4978134;28;56980;-77
2022/05/17 01:48:37;;;;;;;;;4.00;4.00;;;;;23.04;100.00;101555.22;4979865;28;45620;-81
2022/05/17 01:51:04;;;;;;;;;4.00;4.00;;;;;23.05;100.00;101556.09;4979425;28;47467;-78
2022/05/17 01:53:29;;;;;;;;;6.33;4.67;;;;;23.05;100.00;101566.84;4979753;28;45343;-77
2022/05/17 01:55:55;;;;;;;;;3.33;3.33;;;;;23.04;100.00;101598.31;4979318;28;45849;-80
2022/05/17 01:58:20;;;;;;;;;3.67;3.67;;;;;23.03;100.00;101606.44;4979329;28;51298;-80
2022/05/17 02:00:46;;;;;;;;;4.00;4.00;;;;;22.96;100.00;101592.28;4978893;28;46473;-77
2022/05/17 02:03:11;;;;;;;;;4.00;3.00;;;;;22.90;100.00;101593.28;4979423;28;45227;-78
2022/05/17 02:05:36;;;;;;;;;4.00;4.00;;;;;22.86;100.00;101605.06;4979456;28;45294;-77
2022/05/17 02:08:02;;;;;;;;;8.00;4.00;;;;;22.85;100.00;101600.63;4978877;28;50603;-77
2022/05/17 02:10:27;;;;;;;;;7.33;3.33;;;;;22.83;100.00;101588.97;4979257;28;45391;-77
2022/05/17 02:12:55;;;;;;;;;6.33;3.00;;;;;22.83;100.00;101582.72;4978974;28;55645;-77
2022/05/17 02:15:20;;;;;;;;;3.67;3.67;;;;;22.83;100.00;101602.44;4979268;28;45342;-76
2022/05/17 02:17:52;;;;;;;;;5.67;5.00;;;;;22.78;100.00;101582.84;4979343;28;45495;-78
2022/05/17 02:20:18;;;;;;;;;3.00;2.67;;;;;22.78;100.00;101590.91;4979207;28;47360;-78
2022/05/17 02:22:44;;;;;;;;;3.67;3.67;;;;;22.78;100.00;101603.50;4979128;28;45458;-76
2022/05/17 02:25:10;;;;;;;;;2.00;2.00;;;;;22.81;100.00;101606.13;4979497;28;45457;-80
2022/05/17 02:27:36;;;;;;;;;2.33;2.33;;;;;22.81;100.00;101590.84;4979317;28;45630;-81
2022/05/17 02:30:03;;;;;;;;;5.00;3.00;;;;;22.82;100.00;101592.59;4978457;28;47647;-76
2022/05/17 02:32:28;;;;;;;;;3.00;3.00;;;;;22.81;100.00;101604.31;4978534;28;45331;-78
2022/05/17 02:34:54;;;;;;;;;2.00;2.00;;;;;22.81;100.00;101590.84;4978205;28;58998;-78
2022/05/17 02:37:19;;;;;;;;;7.67;3.00;;;;;22.79;100.00;101581.91;4978872;28;45559;-76
2022/05/17 02:39:45;;;;;;;;;5.33;4.00;;;;;22.78;100.00;101581.97;4978461;28;47151;-80
2022/05/17 02:42:11;;;;;;;;;2.67;2.67;;;;;22.75;100.00;101589.22;4978662;28;45313;-77
2022/05/17 02:44:37;;;;;;;;;2.33;2.33;;;;;22.73;100.00;101584.78;4979046;28;45311;-79
2022/05/17 02:47:03;;;;;;;;;2.67;2.67;;;;;;;;4979132;28;45538;-77
2022/05/17 02:49:28;;;;;;;;;3.33;3.33;;;;;22.62;100.00;101578.81;4979032;28;47536;-79
2022/05/17 02:51:54;;;;;;;;;3.33;3.33;;;;;22.59;100.00;101589.69;4978199;28;52334;-78
2022/05/17 02:54:20;;;;;;;;;4.33;4.00;;;;;22.55;100.00;101579.91;4978511;28;45216;-78
2022/05/17 02:56:46;;;;;;;;;3.67;3.67;;;;;22.50;100.00;101582.72;4978786;28;45488;-80
2022/05/17 02:59:15;;;;;;;;;4.67;4.00;;;;;22.44;100.00;101570.31;4978250;28;47354;-79
2022/05/17 03:01:41;;;;;;;;;3.00;3.00;;;;;22.42;100.00;101573.94;4980699;28;45616;-79
2022/05/17 03:04:06;;;;;;;;;5.00;2.67;;;;;22.37;100.00;101582.16;4979800;28;56659;-77
2022/05/17 03:06:32;;;;;;;;;4.33;4.00;;;;;22.34;100.00;101575.97;4978755;28;45274;-77
2022/05/17 03:08:57;;;;;;;;;3.00;3.00;;;;;22.31;100.00;101573.34;4977585;28;59297;-79
2022/05/17 03:11:22;;;;;;;;;6.67;4.00;;;;;22.26;100.00;101577.97;4977866;28;55225;-77
2022/05/17 03:13:48;;;;;;;;;6.00;3.00;;;;;22.24;100.00;101567.25;4978464;28;45335;-77
2022/05/17 03:16:15;;;;;;;;;4.00;4.00;;;;;22.20;100.00;101566.44;4977590;28;54947;-80
2022/05/17 03:18:41;;;;;;;;;3.00;3.00;;;;;22.17;100.00;101565.66;4978253;28;45731;-79
2022/05/17 03:21:06;;;;;;;;;5.33;3.33;;;;;22.14;100.00;101566.59;4978067;28;45404;-78
2022/05/17 03:23:32;;;;;;;;;5.33;4.00;;;;;22.11;100.00;101566.69;4978613;28;45278;-78
2022/05/17 03:25:58;;;;;;;;;5.00;4.00;;;;;22.12;100.00;101572.94;4978383;28;45318;-76
2022/05/17 03:28:23;;;;;;;;;7.33;3.00;;;;;22.09;100.00;101575.66;4977152;28;63724;-78
2022/05/17 03:30:49;;;;;;;;;3.67;3.00;;;;;22.07;100.00;101581.09;4977367;28;60188;-77
2022/05/17 03:33:15;;;;;;;;;3.67;3.67;;;;;22.06;100.00;101581.13;4978464;28;45266;-77
2022/05/17 03:35:40;;;;;;;;;5.00;4.00;;;;;22.01;100.00;101578.56;4978008;28;45657;-77
2022/05/17 03:38:05;;;;;;;;;6.67;4.67;;;;;21.96;100.00;101578.66;4977511;28;53995;-81
2022/05/17 03:40:32;;;;;;;;;5.00;5.00;;;;;21.92;100.00;101574.28;4977060;28;57541;-78
2022/05/17 03:42:57;;;;;;;;;5.67;4.33;;;;;21.89;100.00;101570.75;4960646;28;45326;-79
2022/05/17 03:45:23;;;;;;;;;7.00;4.00;;;;;21.85;100.00;101572.66;4978225;28;45482;-76
2022/05/17 03:47:48;;;;;;;;;4.00;4.00;;;;;21.81;100.00;101573.66;4977921;28;47715;-77
2022/05/17 03:50:14;;;;;;;;;5.33;4.00;;;;;21.78;100.00;101583.59;4977833;28;45445;-79
2022/05/17 03:52:39;;;;;;;;;4.33;4.33;;;;;21.75;100.00;101584.56;4977911;28;45545;-77
2022/05/17 03:55:06;;;;;;;;;5.00;5.00;;;;;21.71;100.00;101580.16;4978083;28;45331;-78
2022/05/17 03:57:32;;;;;;;;;4.00;4.00;;;;;21.67;100.00;101583.81;4977844;28;47472;-78
2022/05/17 03:59:58;;;;;;;;;5.00;4.00;;;;;21.64;100.00;101581.22;4976662;28;60837;-79
2022/05/17 04:02:24;;;;;;;;;4.00;4.00;;;;;21.60;100.00;101575.03;4979798;28;46135;-80
2022/05/17 04:04:53;;;;;;;;;4.00;4.00;;;;;21.57;100.00;101569.75;4959968;28;45584;-77
2022/05/17 04:07:19;;;;;;;;;4.67;4.67;;;;;21.55;100.00;101578.75;4977066;28;46687;-80
2022/05/17 04:09:44;;;;;;;;;3.67;3.67;;;;;21.53;100.00;101580.59;4976432;28;45244;-77
2022/05/17 04:12:10;;;;;;;;;5.67;3.00;;;;;21.51;100.00;101577.03;4977799;28;45196;-80
2022/05/17 04:14:36;;;;;;;;;7.00;5.00;;;;;21.47;100.00;101584.31;4977829;28;45542;-77
2022/05/17 04:17:01;;;;;;;;;8.33;5.00;;;;;21.45;100.00;101580.75;4977321;28;47217;-77
2022/05/17 04:19:27;;;;;;;;;5.00;3.00;;;;;21.43;100.00;101577.22;4977062;28;45324;-78
2022/05/17 04:21:52;;;;;;;;;5.00;5.00;;;;;21.41;100.00;101588.00;4976823;28;58740;-77
2022/05/17 04:24:17;;;;;;;;;6.67;5.00;;;;;21.37;100.00;101583.63;4977213;28;45315;-78
2022/05/17 04:26:43;;;;;;;;;5.33;4.67;;;;;21.34;100.00;101577.41;4976967;28;46046;-77
2022/05/17 04:29:09;;;;;;;;;7.00;3.67;;;;;21.33;100.00;101587.28;4977010;28;48053;-75
2022/05/17 04:31:35;;;;;;;;;8.00;5.00;;;;;21.30;100.00;101583.75;4977058;28;45492;-77
2022/05/17 04:34:01;;;;;;;;;5.00;5.00;;;;;21.28;100.00;101593.63;4976982;28;45549;-78
2022/05/17 04:36:27;;;;;;;;;6.67;5.00;;;;;21.26;100.00;101595.47;4976630;28;47462;-75
2022/05/17 04:38:52;;;;;;;;;7.00;5.33;;;;;21.24;100.00;101595.50;4973578;28;61325;-79
2022/05/17 04:41:18;;;;;;;;;4.00;4.00;;;;;21.21;100.00;101594.69;4971748;28;45694;-75
2022/05/17 04:43:43;;;;;;;;;4.33;4.33;;;;;21.22;100.00;101609.88;4975100;28;45452;-77
2022/05/17 04:46:09;;;;;;;;;8.00;5.00;;;;;21.20;100.00;101609.94;4975703;28;46209;-78
2022/05/17 04:48:35;;;;;;;;;7.00;5.67;;;;;21.19;100.00;101611.69;4958784;28;45439;-77
2022/05/17 04:51:06;;;;;;;;;6.00;4.67;;;;;21.19;100.00;101605.44;4976716;28;45297;-78
2022/05/17 04:53:31;;;;;;;;;5.67;5.00;;;;;21.17;100.00;101602.78;4976460;28;45471;-75
2022/05/17 04:55:56;;;;;;;;;6.33;6.00;;;;;21.16;100.00;101597.47;4975935;28;46437;-78
2022/05/17 04:58:22;;;;;;;;;7.00;5.00;;;;;21.15;100.00;101604.66;4975736;28;56329;-80
2022/05/17 05:00:47;;;;;;;;;7.00;6.00;;;;;21.16;100.00;101606.41;4974468;28;45403;-76
2022/05/17 05:03:14;;;;;;;;;6.33;6.33;;;;;21.16;100.00;101611.78;4975738;28;55318;-75
2022/05/17 05:05:39;;;;;;;;;7.33;6.33;;;;;21.17;100.00;101604.59;4975646;28;46496;-76
2022/05/17 05:08:05;;;;;;;;;6.33;6.00;;;;;21.19;100.00;101622.44;4975903;28;53823;-75
2022/05/17 05:10:30;;;;;;;;;7.00;6.67;;;;;21.22;100.00;101621.50;4976366;28;45322;-76
2022/05/17 05:12:56;;;;;;;;;8.00;6.67;;;;;21.28;100.00;101626.75;4976679;28;51869;-77
2022/05/17 05:15:21;;;;;;;;;4.00;4.00;;;;;21.34;100.00;101623.97;4975310;28;47209;-77
2022/05/17 05:17:46;;;;;;;;;9.00;4.33;;;;;21.41;100.00;101635.47;4976292;28;45351;-77
2022/05/17 05:20:15;;;;;;;;;10.00;8.33;;;;;21.41;100.00;101631.00;4957314;28;45460;-77
2022/05/17 05:22:41;;;;;;;;;6.00;6.00;;;;;21.39;100.00;101629.25;4969348;28;45363;-76
2022/05/17 05:25:08;;;;;;;;;8.33;5.67;;;;;21.35;100.00;101638.28;4993657;28;46330;-74
2022/05/17 05:27:37;;;;;;;;;5.00;5.00;;;;;21.30;100.00;101640.19;4976563;28;45512;-78
2022/05/17 05:30:05;;;;;;;;;8.67;6.00;;;;;21.26;100.00;101642.03;4978200;28;45452;-78
2022/05/17 05:32:30;;;;;;;;;6.33;6.33;;;;;21.23;100.00;101635.81;4962266;28;45714;-77
2022/05/17 05:34:55;;;;;;;;;7.00;6.00;;;;;21.18;100.00;101641.28;4976118;28;46353;-76
2022/05/17 05:37:21;;;;;;;;;8.00;7.00;;;;;21.14;100.00;101640.44;4961858;28;45308;-78
2022/05/17 05:39:46;;;;;;;;;9.33;7.67;;;;;21.11;100.00;101635.16;4984122;28;45419;-76
2022/05/17 05:42:12;;;;;;;;;8.00;7.00;;;;;21.12;100.00;101646.78;4975826;28;45641;-76
2022/05/17 05:44:37;;;;;;;;;13.33;7.00;;;;;21.11;100.00;101653.94;4972671;28;49523;-78
2022/05/17 05:47:03;;;;;;;;;12.00;9.00;;;;;21.12;100.00;101652.16;4984258;28;45513;-77
2022/05/17 05:49:28;;;;;;;;;10.33;8.33;;;;;21.17;100.00;101655.63;4991495;28;45500;-77
2022/05/17 05:51:53;;;;;;;;;12.67;7.33;;;;;21.22;100.00;101663.59;4973139;28;45524;-76
2022/05/17 05:54:19;;;;;;;;;8.33;8.33;;;;;21.27;100.00;101657.22;4977503;28;46472;-76
2022/05/17 05:56:44;;;;;;;;;11.33;9.33;;;;;21.32;100.00;101659.84;4978558;28;45481;-76
2022/05/17 05:59:10;;;;;;;;;9.00;9.00;;;;;21.33;100.00;101654.44;4979435;28;55385;-76
2022/05/17 06:01:36;;;;;;;;;10.00;9.00;;;;;21.36;100.00;101651.72;4977122;28;45532;-76
2022/05/17 06:04:01;;;;;;;;;13.67;12.33;;;;;21.39;100.00;101653.44;4980279;28;45826;-75
2022/05/17 06:06:27;;;;;;;;;24.00;13.33;;;;;21.39;100.00;101651.63;4978370;28;45850;-77
2022/05/17 06:08:53;;;;;;;;;16.33;13.33;;;;;21.41;100.00;101649.81;4978119;28;45603;-76
2022/05/17 06:11:18;;;;;;;;;14.33;11.67;;;;;21.44;100.00;101655.09;4975543;28;45492;-75
2022/05/17 06:13:44;;;;;;;;;16.33;12.33;;;;;21.47;100.00;101659.53;4981662;28;47506;-75
2022/05/17 06:16:09;;;;;;;;;15.33;10.00;;;;;21.51;100.00;101654.97;4994598;28;45571;-75
2022/05/17 06:18:34;;;;;;;;;13.33;10.67;;;;;21.55;100.00;101664.75;4976865;28;48688;-74
2022/05/17 06:21:01;;;;;;;;;12.00;12.00;;;;;21.58;100.00;101667.38;4990723;28;45453;-75
2022/05/17 06:23:26;;;;;;;;;10.00;10.00;;;;;21.60;100.00;101662.84;4980968;28;46419;-76
2022/05/17 06:25:52;;;;;;;;;10.00;9.00;;;;;21.63;100.00;101655.59;4986975;28;45602;-75
2022/05/17 06:28:18;;;;;;;;;14.33;10.00;;;;;21.66;100.00;101660.00;4980356;28;45513;-75
2022/05/17 06:30:43;;;;;;;;;16.00;14.33;;;;;21.68;100.00;101659.09;4975653;28;45495;-75
2022/05/17 06:33:10;;;;;;;;;10.33;10.00;;;;;21.69;100.00;101668.03;4975009;28;47202;-76
2022/05/17 06:35:36;;;;;;;;;13.33;10.00;;;;;21.72;100.00;101657.19;4976501;28;45448;-75
2022/05/17 06:38:02;;;;;;;;;14.00;11.00;;;;;21.74;100.00;101658.06;4976106;28;45444;-75
2022/05/17 06:40:27;;;;;;;;;12.33;10.00;;;;;21.76;100.00;101649.94;4977772;28;45555;-75
2022/05/17 06:42:52;;;;;;;;;9.00;9.00;;;;;21.79;100.00;101657.97;4982561;28;46196;-75
2022/05/17 06:45:18;;;;;;;;;11.33;8.00;;;;;21.81;100.00;101657.00;4969287;28;56026;-75
2022/05/17 06:47:43;;;;;;;;;14.00;10.00;;;;;21.84;100.00;101653.34;4978614;28;46528;-75
2022/05/17 06:50:10;;;;;;;;;12.33;9.67;;;;;21.87;100.00;101655.97;4976858;28;45424;-75
2022/05/17 06:52:36;;;;;;;;;11.00;8.33;;;;;21.88;100.00;101657.72;4977480;28;46427;-75
2022/05/17 06:55:02;;;;;;;;;13.67;9.67;;;;;21.91;100.00;101655.88;4977952;28;45419;-75
2022/05/17 06:57:27;;;;;;;;;7.00;7.00;;;;;21.94;100.00;101650.44;4979438;28;45314;-76
2022/05/17 06:59:52;;;;;;;;;10.33;8.00;;;;;21.99;100.00;101655.69;4982110;28;45472;-75
2022/05/17 07:02:20;;;;;;;;;10.00;7.00;;;;;22.03;100.00;101654.69;4976472;28;62300;-75
2022/05/17 07:04:46;;;;;;;;;6.67;6.67;;;;;22.05;100.00;101662.72;4985337;28;45434;-75
2022/05/17 07:07:11;;;;;;;;;10.33;8.00;;;;;22.08;100.00;101663.53;4985151;28;45673;-75
2022/05/17 07:09:37;;;;;;;;;19.33;15.67;;;;;22.11;100.00;101671.59;4977487;28;46338;-75
2022/05/17 07:14:47;;;;;;;;;6.33;4.00;;;;;22.18;100.00;101659.75;4976772;28;45378;-76
2022/05/17 07:17:20;;;;;;;;;8.00;8.00;;;;;22.22;100.00;101652.50;4976293;28;56116;-75
2022/05/17 07:19:46;;;;;;;;;10.00;6.00;;;;;22.27;100.00;101652.41;4975446;28;45520;-75
2022/05/17 07:22:12;;;;;;;;;6.33;6.33;;;;;22.31;100.00;101657.63;4976790;28;45932;-76
2022/05/17 07:24:41;;;;;;;;;5.00;5.00;;;;;22.36;100.00;101652.16;4977746;28;45583;-75
2022/05/17 07:27:07;;;;;;;;;11.67;6.00;;;;;22.42;100.00;101655.56;4982314;28;45439;-75
2022/05/17 07:29:33;;;;;;;;;8.00;8.00;;;;;22.46;100.00;101654.56;4992631;28;45508;-76
2022/05/17 07:31:59;;;;;;;;;11.00;10.00;;;;;22.51;100.00;101654.47;4976492;28;46518;-75
2022/05/17 07:34:24;;;;;;;;;8.00;6.67;;;;;22.56;100.00;101654.34;4976368;28;45319;-75
2022/05/17 07:36:52;;;;;;;;;6.00;5.00;;;;;22.60;100.00;101653.34;4982336;28;45504;-76
2022/05/17 07:39:18;;;;;;;;;9.00;6.00;;;;;22.64;100.00;101652.34;4979204;28;55073;-77
2022/05/17 07:41:43;;;;;;;;;6.33;5.00;;;;;22.69;100.00;101658.47;4975682;28;45524;-76
2022/05/17 07:44:09;;;;;;;;;6.33;5.00;;;;;22.74;100.00;101651.16;4979860;28;61769;-76
2022/05/17 07:46:34;;;;;;;;;5.33;4.00;;;;;22.80;100.00;101647.41;4983087;28;45387;-77
2022/05/17 07:49:00;;;;;;;;;5.33;4.00;;;;;22.83;100.00;101645.53;4977386;28;45501;-77
2022/05/17 07:51:26;;;;;;;;;5.00;3.67;;;;;22.88;100.00;101654.41;4975758;28;46391;-78
2022/05/17 07:53:51;;;;;;;;;4.67;4.67;;;;;22.92;100.00;101649.84;4976803;28;45353;-78
2022/05/17 07:56:17;;;;;;;;;5.00;4.00;;;;;22.96;100.00;101652.41;4976205;28;54031;-76
2022/05/17 07:58:42;;;;;;;;;6.00;4.67;;;;;23.04;100.00;101654.88;4976216;28;50343;-76
2022/05/17 08:01:08;;;;;;;;;6.33;5.00;;;;;23.09;100.00;101654.75;4977027;28;46806;-76
2022/05/17 08:03:35;;;;;;;;;5.67;4.33;;;;;23.15;100.00;101660.84;4975705;28;45402;-76
2022/05/17 08:06:01;;;;;;;;;6.00;5.00;;;;;23.21;100.00;101655.28;4977284;28;45459;-76
2022/05/17 08:08:26;;;;;;;;;5.00;5.00;;;;;23.25;100.00;101656.09;4977140;28;45212;-77
2022/05/17 08:10:52;;;;;;;;;4.00;4.00;;;;;23.30;100.00;101664.94;4976859;28;47157;-76
2022/05/17 08:13:19;;;;;;;;;5.00;5.00;;;;;23.32;100.00;101646.88;4978103;28;45409;-76
2022/05/17 08:15:45;;;;;;;;;7.67;5.00;;;;;23.39;100.00;101653.00;4983113;28;45522;-76
2022/05/17 08:18:11;;;;;;;;;4.00;4.00;;;;;23.40;100.00;101652.97;4978634;28;45718;-76
2022/05/17 08:20:36;;;;;;;;;6.00;3.00;;;;;23.43;100.00;101654.66;4975589;28;47525;-78
2022/05/17 08:23:03;;;;;;;;;4.00;4.00;;;;;23.45;100.00;101659.09;4977214;28;45528;-76
2022/05/17 08:28:12;;;;;;;;;3.67;3.00;;;;;23.53;100.00;101657.03;4963741;28;45589;-80
2022/05/17 08:30:38;;;;;;;;;3.33;3.33;;;;;23.57;100.00;101657.84;4979831;28;62889;-80
2022/05/17 08:33:16;;;;;;;;;2.00;2.00;;;;;23.59;100.00;101658.66;4975813;28;45498;-80
2022/05/17 08:35:55;;;;;;;;;4.33;2.67;;;;;23.64;100.00;101647.78;4976375;28;45417;-79
2022/05/17 08:38:44;;;;;;;;;10.67;3.33;;;;;23.70;100.00;101652.97;4976537;28;45511;-79
2022/05/17 08:41:09;;;;;;;;;5.33;3.00;;;;;23.74;100.00;101660.06;4974052;28;47533;-80
2022/05/17 08:43:46;;;;;;;;;3.67;2.67;;;;;23.77;100.00;101658.16;4975715;28;45496;-80
2022/05/17 08:47:05;;;;;;;;;5.00;3.00;;;;;23.81;100.00;101650.88;4970827;28;45627;-79
2022/05/17 08:49:38;;;;;;;;;5.67;3.00;;;;;23.84;100.00;101647.19;4946093;28;45335;-80
2022/05/17 08:52:09;;;;;;;;;3.67;2.00;;;;;23.87;97.55;101644.41;4969576;28;48280;-79
2022/05/17 08:54:38;;;;;;;;;5.00;3.00;;;;;23.91;99.94;101646.94;4980786;28;45372;-82
2022/05/17 08:57:20;;;;;;;;;4.00;3.00;;;;;23.94;100.00;101641.44;4965191;28;45625;-80
2022/05/17 08:59:47;;;;;;;;;3.33;2.00;;;;;23.99;100.00;101642.19;5098885;22;45669;-81
2022/05/17 09:02:44;;;;;;;;;1.67;1.67;;;;;24.03;100.00;101635.78;4986186;28;46840;-80
2022/05/17 09:05:25;;;;;;;;;4.00;3.00;;;;;24.09;100.00;101633.81;4995614;28;45911;-80
2022/05/17 09:07:59;;;;;;;;;6.67;4.00;;;;;24.13;100.00;101638.16;4992626;28;45455;-81
2022/05/17 09:10:33;;;;;;;;;4.33;4.33;;;;;24.16;100.00;101633.53;4994991;28;45596;-82
2022/05/17 09:13:23;;;;;;;;;3.67;3.67;;;;;24.22;100.00;101630.63;5009757;28;47762;-83
2022/05/17 09:15:50;;;;;;;;;8.67;6.00;;;;;24.25;100.00;101624.28;5013701;28;45471;-81
2022/05/17 09:18:17;;;;;;;;;2.00;2.00;;;;;24.33;96.33;101627.56;4993416;28;45565;-80
2022/05/17 09:20:43;;;;;;;;;3.00;2.00;;;;;24.38;93.53;101628.34;4996731;28;45574;-81
2022/05/17 09:23:09;;;;;;;;;2.67;2.00;;;;;24.44;94.05;101624.56;4996385;28;45533;-80
2022/05/17 09:26:06;;;;;;;;;2.00;2.00;;;;;24.49;97.57;101611.78;4997090;28;45332;-82
2022/05/17 09:28:50;;;;;;;;;4.00;3.33;;;;;24.55;96.17;101617.88;4996524;28;45436;-81
2022/05/17 09:31:21;;;;;;;;;4.67;1.33;;;;;24.63;95.10;101616.72;4995685;28;45368;-81
2022/05/17 09:33:47;;;;;;;;;4.00;1.33;;;;;24.69;90.99;101616.50;4997137;28;47547;-80
2022/05/17 09:36:19;;;;;;;;;1.00;1.00;;;;;24.74;89.68;101606.41;4994038;28;45858;-81
2022/05/17 09:38:48;;;;;;;;;3.67;2.00;;;;;24.80;92.67;101617.00;4997215;28;45525;-81
2022/05/17 09:41:17;;;;;;;;;4.00;3.00;;;;;24.85;95.18;101619.53;4998026;28;45686;-81
2022/05/17 09:43:53;;;;;;;;;1.00;1.00;;;;;24.89;92.83;101605.88;4997415;28;46702;-80
2022/05/17 09:46:29;;;;;;;;;3.67;3.00;;;;;24.95;94.75;101611.03;4993020;28;45477;-82
2022/05/17 09:54:45;;;;;;;;;2.00;1.00;;;;;25.05;91.66;101607.06;5013620;28;45581;-82
2022/05/17 09:57:16;;;;;;;;;3.00;3.00;;;;;25.10;92.39;101606.06;4987736;28;45534;-82
2022/05/17 09:59:42;;;;;;;;;5.00;2.00;;;;;25.14;94.49;101605.88;4990362;28;45475;-83
2022/05/17 10:03:03;;;;;;;;;2.00;2.00;;;;;25.19;91.85;101603.88;4996408;28;45567;-82
2022/05/17 10:05:37;;;;;;;;;2.00;2.00;;;;;25.24;92.84;101599.16;4974677;28;47513;-83
2022/05/17 10:08:08;;;;;;;;;2.00;2.00;;;;;25.27;90.05;101598.19;4994683;28;46186;-83
2022/05/17 10:10:36;;;;;;;;;2.33;1.00;;;;;25.36;94.16;101596.97;5011770;28;45614;-81
2022/05/17 10:13:25;;;;;;;;;1.00;1.00;;;;;25.41;94.62;101595.84;5010826;28;45732;-81
2022/05/17 10:15:54;;;;;;;;;3.00;1.00;;;;;25.43;97.09;101588.53;5012083;28;46749;-80
2022/05/17 10:18:34;;;;;;;;;1.00;1.00;;;;;25.47;95.73;101590.19;4993034;28;45574;-84
2022/05/17 10:21:08;;;;;;;;;1.33;1.33;;;;;25.51;94.26;101596.34;4992440;28;45476;-81
2022/05/17 10:23:43;;;;;;;;;0.00;0.00;;;;;25.51;83.37;101583.69;4993248;28;45646;-82
2022/05/17 10:26:12;;;;;;;;;0.33;0.00;;;;;25.57;89.23;101580.78;4995048;28;47324;-82
2022/05/17 10:28:46;;;;;;;;;1.00;1.00;;;;;25.62;91.07;101583.31;4994696;28;45538;-81
2022/05/17 10:31:35;;;;;;;;;2.00;1.00;;;;;25.66;91.23;101578.63;4999891;28;45495;-82
2022/05/17 10:34:32;;;;;;;;;1.00;1.00;;;;;25.69;87.38;101559.59;4996843;28;45619;-82
2022/05/17 10:37:02;;;;;;;;;1.67;1.00;;;;;25.76;86.11;101561.13;4993613;28;47507;-83
2022/05/17 10:39:37;;;;;;;;;3.00;2.00;;;;;25.80;84.07;101569.06;4996709;28;45369;-83
2022/05/17 10:42:04;;;;;;;;;3.00;2.00;;;;;25.85;90.05;101561.63;4994679;28;45542;-82
2022/05/17 10:44:41;;;;;;;;;2.00;0.67;;;;;25.89;89.74;101556.09;4990210;28;45482;-83
2022/05/17 10:47:13;;;;;;;;;2.00;2.00;;;;;25.94;89.72;101548.66;4994570;28;46820;-83
2022/05/17 10:50:00;;;;;;;;;1.00;1.00;;;;;25.97;88.37;101552.13;4996666;28;45459;-82
2022/05/17 10:52:35;;;;;;;;;1.00;1.00;;;;;26.04;89.06;101544.63;4996683;28;45360;-82
2022/05/17 10:55:19;;;;;;;;;2.00;2.00;;;;;26.09;89.50;101543.47;4986971;28;45578;-82
2022/05/17 10:57:51;;;;;;;;;1.00;1.00;;;;;26.15;88.89;101557.69;4994418;28;46731;-82
2022/05/17 11:00:26;;;;;;;;;2.00;1.00;;;;;26.18;87.92;101552.19;4996556;28;45289;-82
2022/05/17 11:03:14;;;;;;;;;1.67;1.67;;;;;26.20;89.93;101548.44;4996163;28;46522;-83
2022/05/17 11:06:07;;;;;;;;;1.33;1.33;;;;;26.25;84.70;101538.28;5003938;28;45316;-82
2022/05/17 11:09:10;;;;;;;;;1.67;1.67;;;;;26.32;76.39;101538.94;4991184;28;46204;-81
2022/05/17 11:11:48;;;;;;;;;2.67;2.33;;;;;26.39;82.29;101541.28;4992176;28;45511;-84
2022/05/17 11:14:27;;;;;;;;;1.33;1.33;;;;;26.47;86.37;101534.69;4998125;28;45466;-82
2022/05/17 11:17:10;;;;;;;;;3.00;1.67;;;;;26.55;85.77;101529.81;4996200;28;45564;-83
2022/05/17 11:19:51;;;;;;;;;0.00;0.00;;;;;26.59;83.28;101523.31;4994712;28;47289;-83
2022/05/17 11:22:35;;;;;;;;;2.00;1.00;;;;;26.63;84.84;101523.13;4990529;28;45350;-83
2022/05/17 11:25:14;;;;;;;;;2.00;2.00;;;;;26.69;72.60;101511.13;4990683;28;45590;-82
2022/05/17 11:28:04;;;;;;;;;3.00;3.00;;;;;26.84;78.87;101512.22;5023643;28;45340;-83
2022/05/17 11:30:43;;;;;;;;;4.67;2.00;;;;;26.99;75.47;101519.66;4989002;28;45685;-83
2022/05/17 11:33:29;;;;;;;;;2.00;2.00;;;;;27.21;78.55;101513.25;4995994;28;45523;-83
2022/05/17 11:35:58;;;;;;;;;4.67;2.33;;;;;27.37;78.57;101508.84;4990522;28;45562;-81
2022/05/17 11:38:36;;;;;;;;;1.67;1.67;;;;;27.55;74.90;101507.09;4994726;28;45584;-83
2022/05/17 11:41:13;;;;;;;;;5.33;2.67;;;;;27.66;80.38;101505.59;4990190;28;46769;-79